createdAt,value
2022-08-27T00:01:45.600Z,14.97
2022-08-27T00:04:13.804Z,14.95
2022-08-27T00:06:42.002Z,14.91
2022-08-27T00:09:10.399Z,14.99
2022-08-27T00:11:40.036Z,14.93
2022-08-27T00:14:08.205Z,14.97
2022-08-27T00:16:36.438Z,14.93
2022-08-27T00:19:04.945Z,14.89
2022-08-27T00:21:33.333Z,14.81
2022-08-27T00:24:01.549Z,14.69
2022-08-27T00:26:30.293Z,14.68
2022-08-27T00:28:59.811Z,14.68
2022-08-27T00:31:28.090Z,14.65
2022-08-27T00:33:56.815Z,14.69
2022-08-27T00:36:25.593Z,14.76
2022-08-27T00:38:54.527Z,14.83
2022-08-27T00:41:23.325Z,14.87
2022-08-27T00:43:53.921Z,14.89
2022-08-27T00:46:29.594Z,14.93
2022-08-27T00:49:05.178Z,14.95
2022-08-27T00:51:33.575Z,14.98
2022-08-27T00:54:02.645Z,15.00
2022-08-27T00:56:35.683Z,15.05
2022-08-27T00:59:05.483Z,15.08
2022-08-27T01:01:56.189Z,14.99
2022-08-27T01:04:24.553Z,15.05
2022-08-27T01:06:52.695Z,15.06
2022-08-27T01:09:20.853Z,15.10
2022-08-27T01:11:49.715Z,15.11
2022-08-27T01:14:17.993Z,15.13
2022-08-27T01:16:50.816Z,15.16
2022-08-27T01:19:25.788Z,15.17
2022-08-27T01:22:00.280Z,15.18
2022-08-27T01:24:37.041Z,15.15
2022-08-27T01:27:13.266Z,15.18
2022-08-27T01:29:42.587Z,15.16
2022-08-27T01:32:13.527Z,15.12
2022-08-27T01:34:41.907Z,15.09
2022-08-27T01:37:10.617Z,15.06
2022-08-27T01:39:40.856Z,15.00
2022-08-27T01:42:10.857Z,14.98
2022-08-27T01:44:48.869Z,14.93
2022-08-27T01:47:17.821Z,14.88
2022-08-27T01:49:46.047Z,14.86
2022-08-27T01:52:15.147Z,14.82
2022-08-27T01:54:44.938Z,14.74
2022-08-27T01:57:13.597Z,14.67
2022-08-27T01:59:42.211Z,14.62
2022-08-27T02:02:12.067Z,14.67
2022-08-27T02:04:40.642Z,14.67
2022-08-27T02:07:09.058Z,14.63
2022-08-27T02:09:37.197Z,14.81
2022-08-27T02:12:07.525Z,14.72
2022-08-27T02:14:35.997Z,14.74
2022-08-27T02:17:04.067Z,14.72
2022-08-27T02:19:32.165Z,14.64
2022-08-27T02:22:00.627Z,14.57
2022-08-27T02:24:29.458Z,14.52
2022-08-27T02:26:57.859Z,14.48
2022-08-27T02:29:27.387Z,14.45
2022-08-27T02:31:55.617Z,14.47
2022-08-27T02:34:23.837Z,14.51
2022-08-27T02:36:52.525Z,14.60
2022-08-27T02:39:20.717Z,14.66
2022-08-27T02:41:49.489Z,14.68
2022-08-27T02:44:17.719Z,14.72
2022-08-27T02:46:47.177Z,14.77
2022-08-27T02:49:18.190Z,14.76
2022-08-27T02:51:46.657Z,14.76
2022-08-27T02:54:14.727Z,14.74
2022-08-27T02:56:42.829Z,14.72
2022-08-27T02:59:10.948Z,14.66
2022-08-27T03:01:39.079Z,14.58
2022-08-27T03:04:08.616Z,14.50
2022-08-27T03:06:36.687Z,14.48
2022-08-27T03:09:06.287Z,14.27
2022-08-27T03:11:34.755Z,14.34
2022-08-27T03:14:02.948Z,14.31
2022-08-27T03:16:31.041Z,14.28
2022-08-27T03:18:58.128Z,14.22
2022-08-27T03:21:27.879Z,14.18
2022-08-27T03:23:56.008Z,14.10
2022-08-27T03:26:24.215Z,14.09
2022-08-27T03:28:52.328Z,14.10
2022-08-27T03:31:27.302Z,14.04
2022-08-27T03:33:57.320Z,14.00
2022-08-27T03:36:25.540Z,13.97
2022-08-27T03:38:55.326Z,13.94
2022-08-27T03:41:24.126Z,13.93
2022-08-27T03:44:16.747Z,13.91
2022-08-27T03:46:50.291Z,13.99
2022-08-27T03:49:20.378Z,13.99
2022-08-27T03:51:48.877Z,13.97
2022-08-27T03:54:18.487Z,13.86
2022-08-27T03:56:47.167Z,13.87
2022-08-27T03:59:15.912Z,13.87
2022-08-27T04:01:44.068Z,13.88
2022-08-27T04:04:13.206Z,13.83
2022-08-27T04:06:41.709Z,13.88
2022-08-27T04:09:09.895Z,13.88
2022-08-27T04:11:39.478Z,13.81
2022-08-27T04:14:22.608Z,13.82
2022-08-27T04:16:56.184Z,13.75
2022-08-27T04:19:27.690Z,13.76
2022-08-27T04:22:00.650Z,13.74
2022-08-27T04:24:28.907Z,13.75
2022-08-27T04:26:58.794Z,13.86
2022-08-27T04:29:27.050Z,13.83
2022-08-27T04:31:56.267Z,13.86
2022-08-27T04:34:24.667Z,13.88
2022-08-27T04:36:53.388Z,13.94
2022-08-27T04:39:21.457Z,13.92
2022-08-27T04:41:50.887Z,13.98
2022-08-27T04:44:20.577Z,14.03
2022-08-27T04:46:51.067Z,14.04
2022-08-27T04:49:19.226Z,14.09
2022-08-27T04:51:48.221Z,14.23
2022-08-27T04:54:17.447Z,14.31
2022-08-27T04:56:51.390Z,14.38
2022-08-27T04:59:21.009Z,14.44
2022-08-27T05:01:49.538Z,14.49
2022-08-27T05:04:19.747Z,14.56
2022-08-27T05:06:49.468Z,14.53
2022-08-27T05:09:18.387Z,14.67
2022-08-27T05:11:48.736Z,14.66
2022-08-27T05:14:17.316Z,14.80
2022-08-27T05:16:47.613Z,14.95
2022-08-27T05:19:15.887Z,15.05
2022-08-27T05:21:48.297Z,15.22
2022-08-27T05:24:16.910Z,15.33
2022-08-27T05:26:45.317Z,15.31
2022-08-27T05:29:14.209Z,15.40
2022-08-27T05:31:43.091Z,15.61
2022-08-27T05:34:18.571Z,15.75
2022-08-27T05:36:53.337Z,16.08
2022-08-27T05:39:21.426Z,16.23
2022-08-27T05:41:49.539Z,16.40
2022-08-27T05:44:40.470Z,16.63
2022-08-27T05:47:06.148Z,16.78
2022-08-27T05:49:35.677Z,16.90
2022-08-27T05:52:04.378Z,17.06
2022-08-27T05:54:32.446Z,17.35
2022-08-27T05:57:00.528Z,17.52
2022-08-27T05:59:54.508Z,17.69
2022-08-27T06:02:24.032Z,17.82
2022-08-27T06:04:53.962Z,18.00
2022-08-27T06:07:22.266Z,17.93
2022-08-27T06:09:50.370Z,18.04
2022-08-27T06:12:18.440Z,17.86
2022-08-27T06:14:46.557Z,17.68
2022-08-27T06:17:14.616Z,17.82
2022-08-27T06:19:42.988Z,17.48
2022-08-27T06:22:12.527Z,17.38
2022-08-27T06:24:41.629Z,17.43
2022-08-27T06:27:11.700Z,17.44
2022-08-27T06:29:40.585Z,17.65
2022-08-27T06:32:09.359Z,17.68
2022-08-27T06:34:37.725Z,17.59
2022-08-27T06:37:05.987Z,17.56
2022-08-27T06:39:36.390Z,17.58
2022-08-27T06:42:06.419Z,17.45
2022-08-27T06:44:35.325Z,17.58
2022-08-27T06:47:04.787Z,17.52
2022-08-27T06:49:33.733Z,17.48
2022-08-27T06:52:02.050Z,17.44
2022-08-27T06:54:30.135Z,17.53
2022-08-27T06:57:01.248Z,17.63
2022-08-27T06:59:29.268Z,17.73
2022-08-27T07:01:57.342Z,17.75
2022-08-27T07:04:32.271Z,17.86
2022-08-27T07:07:01.432Z,18.07
2022-08-27T07:09:32.164Z,18.31
2022-08-27T07:12:02.312Z,18.52
2022-08-27T07:14:35.618Z,18.62
2022-08-27T07:17:07.429Z,18.80
2022-08-27T07:19:40.912Z,18.44
2022-08-27T07:22:09.470Z,18.45
2022-08-27T07:24:38.232Z,18.51
2022-08-27T07:27:07.997Z,18.66
2022-08-27T07:29:36.302Z,18.39
2022-08-27T07:32:12.375Z,18.50
2022-08-27T07:34:42.728Z,18.58
2022-08-27T07:37:13.719Z,18.73
2022-08-27T07:39:41.737Z,18.94
2022-08-27T07:42:28.831Z,18.94
2022-08-27T07:44:56.867Z,19.21
2022-08-27T07:47:24.917Z,20.10
2022-08-27T07:49:52.977Z,20.36
2022-08-27T07:52:23.607Z,20.52
2022-08-27T07:54:54.565Z,20.95
2022-08-27T07:57:23.945Z,21.53
2022-08-27T07:59:53.325Z,21.25
2022-08-27T08:02:23.124Z,21.64
2022-08-27T08:04:51.441Z,21.17
2022-08-27T08:07:19.558Z,20.87
2022-08-27T08:09:47.563Z,20.85
2022-08-27T08:12:15.654Z,21.38
2022-08-27T08:14:45.849Z,22.30
2022-08-27T08:17:14.521Z,22.59
2022-08-27T08:19:50.257Z,22.20
2022-08-27T08:22:30.628Z,23.06
2022-08-27T08:24:58.836Z,22.63
2022-08-27T08:27:28.189Z,23.06
2022-08-27T08:29:57.800Z,23.36
2022-08-27T08:32:25.838Z,22.10
2022-08-27T08:34:53.918Z,21.91
2022-08-27T08:37:22.088Z,21.95
2022-08-27T08:39:50.111Z,21.62
2022-08-27T08:42:29.928Z,21.23
2022-08-27T08:45:01.110Z,21.42
2022-08-27T08:47:31.808Z,21.84
2022-08-27T08:50:05.407Z,22.16
2022-08-27T08:52:43.868Z,22.33
2022-08-27T08:55:19.717Z,22.67
2022-08-27T08:57:50.868Z,22.33
2022-08-27T09:00:20.288Z,22.66
2022-08-27T09:02:53.461Z,23.23
2022-08-27T09:05:27.287Z,22.93
2022-08-27T09:08:15.413Z,22.32
2022-08-27T09:10:52.048Z,21.96
2022-08-27T09:13:24.430Z,22.16
2022-08-27T09:15:59.269Z,22.04
2022-08-27T09:18:28.020Z,22.50
2022-08-27T09:21:08.905Z,23.01
2022-08-27T09:23:46.916Z,23.57
2022-08-27T09:26:20.630Z,23.60
2022-08-27T09:29:06.358Z,22.96
2022-08-27T09:31:40.765Z,23.45
2022-08-27T09:34:09.017Z,24.30
2022-08-27T09:36:37.088Z,24.57
2022-08-27T09:39:07.567Z,25.33
2022-08-27T09:41:42.899Z,25.31
2022-08-27T09:44:14.118Z,25.34
2022-08-27T09:46:53.736Z,25.92
2022-08-27T09:49:22.617Z,25.69
2022-08-27T09:51:50.707Z,25.40
2022-08-27T09:54:43.598Z,24.27
2022-08-27T09:57:13.591Z,24.41
2022-08-27T09:59:44.508Z,24.67
2022-08-27T10:02:18.315Z,23.31
2022-08-27T10:04:51.390Z,23.69
2022-08-27T10:07:29.797Z,23.78
2022-08-27T10:10:03.158Z,23.56
2022-08-27T10:12:35.694Z,23.48
2022-08-27T10:15:05.936Z,23.25
2022-08-27T10:17:40.903Z,23.07
2022-08-27T10:20:16.445Z,22.29
2022-08-27T10:22:55.503Z,22.59
2022-08-27T10:25:34.114Z,22.32
2022-08-27T10:28:12.090Z,21.97
2022-08-27T10:31:00.113Z,21.71
2022-08-27T10:33:39.852Z,22.26
2022-08-27T10:36:26.454Z,21.77
2022-08-27T10:38:58.604Z,22.59
2022-08-27T10:41:29.413Z,22.40
2022-08-27T10:44:24.421Z,22.60
2022-08-27T10:47:03.085Z,22.29
2022-08-27T10:49:38.357Z,21.81
2022-08-27T10:52:12.802Z,22.14
2022-08-27T10:54:43.882Z,22.03
2022-08-27T10:57:53.969Z,21.66
2022-08-27T11:00:10.611Z,21.48
2022-08-27T11:02:43.415Z,21.29
2022-08-27T11:05:17.256Z,21.33
2022-08-27T11:07:48.311Z,21.23
2022-08-27T11:10:21.126Z,21.26
2022-08-27T11:12:51.713Z,21.39
2022-08-27T11:15:23.073Z,21.24
2022-08-27T11:17:56.777Z,21.33
2022-08-27T11:20:29.853Z,21.65
2022-08-27T11:23:02.012Z,21.90
2022-08-27T11:25:39.794Z,21.95
2022-08-27T11:28:08.396Z,22.21
2022-08-27T11:30:44.453Z,22.05
2022-08-27T11:33:17.555Z,22.53
2022-08-27T11:35:58.243Z,22.92
2022-08-27T11:38:39.422Z,23.33
2022-08-27T11:41:31.440Z,23.52
2022-08-27T11:44:14.135Z,24.21
2022-08-27T11:46:46.151Z,24.54
2022-08-27T11:49:24.753Z,24.69
2022-08-27T11:52:00.531Z,24.16
2022-08-27T11:54:31.499Z,24.70
2022-08-27T11:56:59.974Z,24.79
2022-08-27T11:59:33.730Z,24.51
2022-08-27T12:02:14.573Z,24.79
2022-08-27T12:04:43.511Z,24.78
2022-08-27T12:07:29.933Z,24.23
2022-08-27T12:10:08.842Z,23.52
2022-08-27T12:12:45.853Z,23.80
2022-08-27T12:15:18.972Z,24.02
2022-08-27T12:17:49.753Z,23.63
2022-08-27T12:20:25.019Z,23.48
2022-08-27T12:23:26.013Z,23.85
2022-08-27T12:26:01.011Z,23.80
2022-08-27T12:28:29.705Z,23.88
2022-08-27T12:30:58.830Z,24.09
2022-08-27T12:33:31.253Z,24.11
2022-08-27T12:36:07.411Z,24.02
2022-08-27T12:38:43.910Z,23.82
2022-08-27T12:41:26.573Z,23.81
2022-08-27T12:44:04.486Z,23.58
2022-08-27T12:46:32.616Z,23.32
2022-08-27T12:49:12.741Z,23.59
2022-08-27T12:51:50.207Z,23.55
2022-08-27T12:54:33.123Z,23.80
2022-08-27T12:57:06.129Z,23.77
2022-08-27T12:59:48.832Z,23.91
2022-08-27T13:02:40.876Z,23.97
2022-08-27T13:05:12.074Z,24.33
2022-08-27T13:07:42.631Z,24.50
2022-08-27T13:10:14.555Z,24.85
2022-08-27T13:12:43.433Z,25.18
2022-08-27T13:15:14.335Z,25.37
2022-08-27T13:17:46.417Z,25.33
2022-08-27T13:20:17.145Z,25.41
2022-08-27T13:22:45.647Z,25.29
2022-08-27T13:25:24.603Z,24.91
2022-08-27T13:27:59.421Z,25.62
2022-08-27T13:30:35.874Z,26.01
2022-08-27T13:33:06.895Z,26.53
2022-08-27T13:35:35.723Z,26.54
2022-08-27T13:38:05.725Z,26.42
2022-08-27T13:40:36.978Z,26.26
2022-08-27T13:43:08.881Z,25.90
2022-08-27T13:45:37.484Z,24.92
2022-08-27T13:48:06.431Z,25.17
2022-08-27T13:50:36.255Z,25.18
2022-08-27T13:53:25.244Z,25.70
2022-08-27T13:55:55.984Z,25.98
2022-08-27T13:58:29.895Z,26.92
2022-08-27T14:01:10.937Z,27.72
2022-08-27T14:03:48.742Z,28.28
2022-08-27T14:06:32.018Z,28.96
2022-08-27T14:09:12.916Z,28.85
2022-08-27T14:11:42.795Z,28.91
2022-08-27T14:14:11.024Z,28.50
2022-08-27T14:16:39.894Z,30.16
2022-08-27T14:19:10.786Z,30.79
2022-08-27T14:21:40.784Z,30.09
2022-08-27T14:24:09.404Z,28.73
2022-08-27T14:26:37.665Z,27.95
2022-08-27T14:29:12.080Z,27.33
2022-08-27T14:31:40.757Z,27.14
2022-08-27T14:34:09.351Z,27.08
2022-08-27T14:36:38.994Z,26.95
2022-08-27T14:39:07.242Z,26.37
2022-08-27T14:41:35.645Z,26.08
2022-08-27T14:44:03.934Z,25.14
2022-08-27T14:46:41.508Z,24.76
2022-08-27T14:49:14.265Z,24.68
2022-08-27T14:51:43.755Z,24.29
2022-08-27T14:54:11.807Z,24.10
2022-08-27T14:56:40.004Z,23.82
2022-08-27T14:59:08.204Z,24.05
2022-08-27T15:01:38.268Z,23.84
2022-08-27T15:04:06.926Z,23.66
2022-08-27T15:06:35.244Z,23.78
2022-08-27T15:09:03.347Z,23.38
2022-08-27T15:11:34.015Z,23.62
2022-08-27T15:14:03.595Z,23.73
2022-08-27T15:16:33.435Z,23.46
2022-08-27T15:19:03.576Z,23.29
2022-08-27T15:21:31.975Z,23.19
2022-08-27T15:24:03.416Z,22.99
2022-08-27T15:26:31.795Z,23.25
2022-08-27T15:29:05.624Z,23.36
2022-08-27T15:31:34.881Z,23.46
2022-08-27T15:34:04.575Z,23.31
2022-08-27T15:36:32.655Z,23.24
2022-08-27T15:39:00.877Z,22.84
2022-08-27T15:41:29.571Z,22.51
2022-08-27T15:43:58.053Z,22.36
2022-08-27T15:46:26.798Z,22.11
2022-08-27T15:48:55.695Z,22.03
2022-08-27T15:51:28.555Z,21.94
2022-08-27T15:53:57.265Z,21.90
2022-08-27T15:56:25.965Z,21.81
2022-08-27T15:58:55.294Z,21.82
2022-08-27T16:01:26.788Z,21.66
2022-08-27T16:03:55.774Z,21.71
2022-08-27T16:06:24.495Z,21.57
2022-08-27T16:08:54.405Z,21.34
2022-08-27T16:11:23.485Z,21.25
2022-08-27T16:13:51.991Z,21.00
2022-08-27T16:16:24.403Z,21.02
2022-08-27T16:18:52.866Z,20.91
2022-08-27T16:21:21.064Z,20.87
2022-08-27T16:23:49.516Z,20.70
2022-08-27T16:26:19.072Z,20.84
2022-08-27T16:28:47.253Z,20.79
2022-08-27T16:31:16.389Z,20.68
2022-08-27T16:33:44.816Z,20.62
2022-08-27T16:36:13.095Z,20.61
2022-08-27T16:38:41.324Z,20.39
2022-08-27T16:41:09.817Z,20.34
2022-08-27T16:43:39.934Z,20.15
2022-08-27T16:46:08.480Z,20.12
2022-08-27T16:48:56.170Z,20.13
2022-08-27T16:51:32.691Z,19.99
2022-08-27T16:54:03.524Z,20.00
2022-08-27T16:56:36.895Z,19.91
2022-08-27T16:59:07.864Z,19.84
2022-08-27T17:01:36.003Z,19.78
2022-08-27T17:04:15.439Z,19.72
2022-08-27T17:06:46.413Z,19.63
2022-08-27T17:09:15.564Z,19.59
2022-08-27T17:11:44.835Z,19.48
2022-08-27T17:14:14.375Z,19.38
2022-08-27T17:16:43.505Z,19.38
2022-08-27T17:19:16.736Z,19.37
2022-08-27T17:21:45.686Z,19.33
2022-08-27T17:24:14.034Z,19.32
2022-08-27T17:26:42.169Z,19.25
2022-08-27T17:29:10.202Z,19.25
2022-08-27T17:31:42.454Z,19.18
2022-08-27T17:34:15.794Z,19.20
2022-08-27T17:36:44.577Z,19.18
2022-08-27T17:39:12.953Z,18.98
2022-08-27T17:41:42.539Z,19.05
2022-08-27T17:44:13.619Z,19.03
2022-08-27T17:46:43.111Z,18.91
2022-08-27T17:49:15.213Z,18.96
2022-08-27T17:51:43.372Z,18.78
2022-08-27T17:54:22.531Z,18.76
2022-08-27T17:56:50.561Z,18.72
2022-08-27T17:59:19.413Z,18.61
2022-08-27T18:01:49.171Z,18.58
2022-08-27T18:04:17.539Z,18.65
2022-08-27T18:06:45.701Z,18.54
2022-08-27T18:09:16.089Z,18.49
2022-08-27T18:11:45.313Z,18.48
2022-08-27T18:14:13.791Z,18.46
2022-08-27T18:16:46.573Z,18.35
2022-08-27T18:19:16.964Z,18.31
2022-08-27T18:21:46.767Z,18.23
2022-08-27T18:24:16.032Z,18.20
2022-08-27T18:26:45.151Z,18.15
2022-08-27T18:29:14.216Z,18.09
2022-08-27T18:31:42.311Z,18.09
2022-08-27T18:34:10.452Z,18.06
2022-08-27T18:36:39.895Z,18.05
2022-08-27T18:39:07.999Z,18.08
2022-08-27T18:41:36.279Z,18.04
2022-08-27T18:44:05.431Z,18.02
2022-08-27T18:46:46.220Z,17.97
2022-08-27T18:49:14.319Z,18.01
2022-08-27T18:51:48.075Z,18.06
2022-08-27T18:54:18.801Z,17.96
2022-08-27T18:56:46.992Z,17.89
2022-08-27T18:59:15.691Z,17.85
2022-08-27T19:01:44.171Z,17.83
2022-08-27T19:04:13.610Z,17.84
2022-08-27T19:06:43.221Z,17.85
2022-08-27T19:09:11.408Z,17.76
2022-08-27T19:11:39.576Z,17.88
2022-08-27T19:14:07.773Z,17.89
2022-08-27T19:16:42.109Z,17.87
2022-08-27T19:19:11.444Z,17.84
2022-08-27T19:21:39.612Z,17.87
2022-08-27T19:24:10.563Z,17.86
2022-08-27T19:26:39.522Z,17.90
2022-08-27T19:29:08.446Z,17.83
2022-08-27T19:31:37.334Z,17.88
2022-08-27T19:34:06.172Z,17.90
2022-08-27T19:36:36.018Z,17.91
2022-08-27T19:39:05.132Z,17.91
2022-08-27T19:41:34.682Z,17.97
2022-08-27T19:44:02.941Z,17.95
2022-08-27T19:46:32.866Z,17.94
2022-08-27T19:49:01.075Z,17.91
2022-08-27T19:51:29.453Z,17.92
2022-08-27T19:53:57.762Z,17.92
2022-08-27T19:56:26.128Z,17.91
2022-08-27T19:58:59.865Z,18.03
2022-08-27T20:01:31.774Z,18.04
2022-08-27T20:04:00.435Z,17.91
2022-08-27T20:06:29.541Z,18.01
2022-08-27T20:08:57.749Z,18.02
2022-08-27T20:11:26.033Z,18.06
2022-08-27T20:13:56.489Z,18.04
2022-08-27T20:16:24.754Z,18.04
2022-08-27T20:18:56.402Z,17.99
2022-08-27T20:21:27.822Z,17.99
2022-08-27T20:23:56.041Z,17.95
2022-08-27T20:26:25.003Z,18.02
2022-08-27T20:28:53.826Z,18.00
2022-08-27T20:31:23.995Z,18.00
2022-08-27T20:33:52.602Z,17.99
2022-08-27T20:36:22.313Z,17.98
2022-08-27T20:38:50.570Z,17.94
2022-08-27T20:41:18.732Z,17.96
2022-08-27T20:43:47.790Z,17.96
2022-08-27T20:46:16.655Z,17.98
2022-08-27T20:48:46.662Z,17.98
2022-08-27T20:51:15.168Z,17.94
2022-08-27T20:53:43.430Z,17.89
2022-08-27T20:56:11.759Z,17.87
2022-08-27T20:58:57.419Z,17.89
2022-08-27T21:01:25.906Z,17.81
2022-08-27T21:03:55.527Z,17.84
2022-08-27T21:06:26.447Z,17.82
2022-08-27T21:08:54.871Z,17.82
2022-08-27T21:11:23.251Z,17.82
2022-08-27T21:13:56.515Z,17.79
2022-08-27T21:16:25.520Z,17.84
2022-08-27T21:18:55.864Z,17.79
2022-08-27T21:21:24.486Z,17.79
2022-08-27T21:23:52.721Z,17.75
2022-08-27T21:26:23.167Z,17.76
2022-08-27T21:28:55.454Z,17.82
2022-08-27T21:31:24.937Z,17.70
2022-08-27T21:33:53.252Z,17.79
2022-08-27T21:36:22.891Z,17.76
2022-08-27T21:38:51.521Z,17.73
2022-08-27T21:41:19.773Z,17.76
2022-08-27T21:43:47.912Z,17.77
2022-08-27T21:46:16.212Z,17.71
2022-08-27T21:48:44.532Z,17.67
2022-08-27T21:51:14.730Z,17.67
2022-08-27T21:53:53.983Z,17.72
2022-08-27T21:56:22.422Z,17.60
2022-08-27T21:58:50.635Z,17.61
2022-08-27T22:01:19.473Z,17.58
2022-08-27T22:03:49.571Z,17.60
2022-08-27T22:06:18.006Z,17.54
2022-08-27T22:08:46.174Z,17.65
2022-08-27T22:11:19.592Z,17.61
2022-08-27T22:13:51.619Z,17.55
2022-08-27T22:16:19.954Z,17.55
2022-08-27T22:18:48.231Z,17.56
2022-08-27T22:21:22.831Z,17.54
2022-08-27T22:23:51.601Z,17.62
2022-08-27T22:26:21.882Z,17.59
2022-08-27T22:28:50.211Z,17.65
2022-08-27T22:31:19.003Z,17.55
2022-08-27T22:33:47.210Z,17.56
2022-08-27T22:36:16.108Z,17.55
2022-08-27T22:38:44.279Z,17.53
2022-08-27T22:41:13.779Z,17.55
2022-08-27T22:43:43.554Z,17.48
2022-08-27T22:46:11.779Z,17.56
2022-08-27T22:48:40.352Z,17.50
2022-08-27T22:51:08.750Z,17.50
2022-08-27T22:53:40.301Z,17.51
2022-08-27T22:56:09.031Z,17.50
2022-08-27T22:58:37.234Z,17.49
2022-08-27T23:01:07.280Z,17.57
2022-08-27T23:03:35.519Z,17.53
2022-08-27T23:06:03.782Z,17.49
2022-08-27T23:08:32.070Z,17.60
2022-08-27T23:11:03.583Z,17.52
2022-08-27T23:13:32.472Z,17.52
2022-08-27T23:16:00.866Z,17.47
2022-08-27T23:18:30.551Z,17.45
2022-08-27T23:20:58.738Z,17.54
2022-08-27T23:23:29.812Z,17.47
2022-08-27T23:26:16.830Z,17.46
2022-08-27T23:28:45.451Z,17.48
2022-08-27T23:31:14.330Z,17.40
2022-08-27T23:33:44.131Z,17.48
2022-08-27T23:36:12.396Z,17.45
2022-08-27T23:38:40.803Z,17.37
2022-08-27T23:41:09.263Z,17.39
2022-08-27T23:43:37.482Z,17.42
2022-08-27T23:46:05.878Z,17.36
2022-08-27T23:48:34.159Z,17.30
2022-08-27T23:51:04.301Z,17.42
2022-08-27T23:53:32.468Z,17.45
2022-08-27T23:56:00.680Z,17.45
2022-08-27T23:58:28.839Z,17.39
